Time;durP1;ratioP1;P1;durP2;ratioP2;P2;SDS_P1;SDS_P2;PMS_P1;PMS_P2;Temp;Humidity;BMP_temperature;BMP_pressure;BME280_temperature;BME280_humidity;BME280_pressure;Samples;Min_cycle;Max_cycle;Signal;HPM_P1;HPM_P2
2021/06/22 00:01:41;;;;;;;28.75;15.23;;;;;;;;;;5096017;28;20023;-67
2021/06/22 00:04:06;;;;;;;29.15;13.35;;;;;;;;;;5096022;28;20498;-67
2021/06/22 00:06:31;;;;;;;35.33;14.52;;;;;;;;;;5095767;28;20032;-68
2021/06/22 00:08:57;;;;;;;23.00;13.60;;;;;;;;;;5096029;28;20487;-68
2021/06/22 00:11:22;;;;;;;27.20;14.57;;;;;;;;;;5095791;28;20046;-68
2021/06/22 00:13:47;;;;;;;30.20;14.38;;;;;;;;;;5096153;28;20099;-67
2021/06/22 00:16:13;;;;;;;29.40;14.68;;;;;;;;;;5095724;28;20027;-67
2021/06/22 00:18:38;;;;;;;28.55;14.18;;;;;;;;;;5095786;28;20453;-68
2021/06/22 00:21:03;;;;;;;34.40;18.67;;;;;;;;;;5095628;28;20073;-67
2021/06/22 00:23:29;;;;;;;34.25;13.90;;;;;;;;;;5094602;28;20024;-67
2021/06/22 00:25:54;;;;;;;29.80;15.13;;;;;;;;;;5095443;28;20032;-67
2021/06/22 00:28:20;;;;;;;25.48;14.82;;;;;;;;;;5095581;28;20028;-67
2021/06/22 00:30:45;;;;;;;23.65;14.40;;;;;;;;;;5095495;28;20486;-68
2021/06/22 00:33:10;;;;;;;27.00;13.55;;;;;;;;;;5095508;28;20038;-68
2021/06/22 00:35:35;;;;;;;27.80;13.57;;;;;;;;;;5095137;28;20047;-67
2021/06/22 00:38:01;;;;;;;26.20;14.13;;;;;;;;;;5095744;28;20085;-68
2021/06/22 00:40:27;;;;;;;28.92;14.55;;;;;;;;;;5092164;28;20135;-67
2021/06/22 00:42:52;;;;;;;26.48;13.50;;;;;;;;;;5094415;28;20035;-67
2021/06/22 00:45:25;;;;;;;26.45;13.77;;;;;;;;;;5094758;28;20472;-66
2021/06/22 00:47:50;;;;;;;32.28;13.60;;;;;;;;;;5094623;28;20036;-67
2021/06/22 00:50:15;;;;;;;24.33;14.45;;;;;;;;;;5095189;28;20026;-68
2021/06/22 00:52:40;;;;;;;24.55;14.07;;;;;;;;;;5094985;28;20019;-67
2021/06/22 00:55:11;;;;;;;32.08;14.95;;;;;;;;;;5095170;28;20036;-68
2021/06/22 00:57:37;;;;;;;27.70;13.38;;;;;;;;;;5094862;28;20021;-68
2021/06/22 01:00:04;;;;;;;31.90;14.52;;;;;;;;;;5095061;28;20031;-67
2021/06/22 01:02:29;;;;;;;24.17;12.85;;;;;;;;;;5094086;28;20024;-68
2021/06/22 01:04:54;;;;;;;20.25;12.93;;;;;;;;;;5094832;28;20370;-67
2021/06/22 01:07:20;;;;;;;20.90;13.38;;;;;;;;;;5094316;28;20040;-68
2021/06/22 01:09:45;;;;;;;22.50;12.52;;;;;;;;;;5094840;28;20040;-67
2021/06/22 01:12:10;;;;;;;24.85;13.48;;;;;;;;;;5094624;28;20545;-68
2021/06/22 01:14:39;;;;;;;25.15;13.27;;;;;;;;;;5094338;28;20020;-68
2021/06/22 01:17:05;;;;;;;23.55;12.32;;;;;;;;;;5094535;28;20028;-67
2021/06/22 01:19:31;;;;;;;23.85;13.80;;;;;;;;;;5094587;28;20103;-67
2021/06/22 01:21:56;;;;;;;18.92;13.23;;;;;;;;;;5094429;28;20024;-68
2021/06/22 01:24:22;;;;;;;24.10;12.90;;;;;;;;;;5094514;28;20036;-67
2021/06/22 01:26:52;;;;;;;21.05;12.80;;;;;;;;;;5094030;28;20062;-67
2021/06/22 01:29:18;;;;;;;22.23;13.30;;;;;;;;;;5094511;28;20024;-68
2021/06/22 01:31:44;;;;;;;20.63;13.10;;;;;;;;;;5094195;28;20127;-68
2021/06/22 01:34:09;;;;;;;25.27;13.05;;;;;;;;;;5094069;28;20024;-66
2021/06/22 01:36:35;;;;;;;29.50;13.32;;;;;;;;;;5094122;28;20047;-68
2021/06/22 01:39:01;;;;;;;26.67;13.07;;;;;;;;;;5094333;28;20036;-67
2021/06/22 01:41:27;;;;;;;27.55;12.73;;;;;;;;;;5093789;28;20065;-68
2021/06/22 01:43:52;;;;;;;27.60;14.25;;;;;;;;;;5094212;28;20045;-67
2021/06/22 01:46:18;;;;;;;22.35;13.43;;;;;;;;;;5093491;28;20383;-67
2021/06/22 01:48:43;;;;;;;29.35;12.90;;;;;;;;;;5093841;28;20028;-68
2021/06/22 01:51:09;;;;;;;22.45;12.00;;;;;;;;;;5094307;28;20028;-68
2021/06/22 01:53:34;;;;;;;23.30;12.43;;;;;;;;;;5093893;28;20027;-67
2021/06/22 01:56:00;;;;;;;22.50;11.63;;;;;;;;;;5093542;28;20468;-67
2021/06/22 01:58:25;;;;;;;19.20;11.40;;;;;;;;;;5093720;28;20048;-68
2021/06/22 02:00:52;;;;;;;22.45;12.48;;;;;;;;;;5093520;28;20032;-68
2021/06/22 02:03:18;;;;;;;27.10;13.45;;;;;;;;;;5093232;28;20073;-68
2021/06/22 02:05:45;;;;;;;31.77;13.52;;;;;;;;;;5093612;28;20024;-68
2021/06/22 02:08:10;;;;;;;25.83;12.40;;;;;;;;;;5093668;28;20119;-67
2021/06/22 02:10:36;;;;;;;25.65;13.13;;;;;;;;;;5093510;28;20433;-67
2021/06/22 02:13:01;;;;;;;26.25;13.23;;;;;;;;;;5093747;28;20039;-67
2021/06/22 02:15:27;;;;;;;31.70;13.90;;;;;;;;;;5093245;28;20032;-67
2021/06/22 02:17:52;;;;;;;22.33;13.13;;;;;;;;;;5093496;28;20020;-68
2021/06/22 02:20:18;;;;;;;29.30;13.65;;;;;;;;;;5093552;28;20463;-67
2021/06/22 02:22:43;;;;;;;28.45;13.48;;;;;;;;;;5093302;28;20043;-67
2021/06/22 02:25:09;;;;;;;24.08;13.32;;;;;;;;;;5093667;28;20435;-68
2021/06/22 02:27:35;;;;;;;25.88;14.15;;;;;;;;;;5092897;28;20479;-67
2021/06/22 02:30:01;;;;;;;26.73;13.85;;;;;;;;;;5093513;28;20112;-67
2021/06/22 02:32:27;;;;;;;24.27;13.45;;;;;;;;;;5093218;28;20016;-67
2021/06/22 02:34:52;;;;;;;25.23;13.90;;;;;;;;;;5093324;28;20097;-68
2021/06/22 02:37:17;;;;;;;28.42;12.27;;;;;;;;;;5093206;28;20031;-67
2021/06/22 02:39:43;;;;;;;24.55;13.15;;;;;;;;;;5093301;28;20066;-67
2021/06/22 02:42:08;;;;;;;21.70;11.95;;;;;;;;;;5093292;28;20464;-68
2021/06/22 02:44:34;;;;;;;25.15;12.70;;;;;;;;;;5093237;28;20067;-68
2021/06/22 02:46:59;;;;;;;19.38;12.43;;;;;;;;;;5095524;28;20085;-68
2021/06/22 02:49:24;;;;;;;24.20;13.50;;;;;;;;;;5097598;28;20525;-68
2021/06/22 02:51:50;;;;;;;20.58;12.55;;;;;;;;;;5097598;28;20124;-68
2021/06/22 02:54:15;;;;;;;20.73;12.32;;;;;;;;;;5097432;28;20070;-67
2021/06/22 02:56:40;;;;;;;22.85;12.98;;;;;;;;;;5097502;28;20024;-67
2021/06/22 02:59:06;;;;;;;20.15;11.90;;;;;;;;;;5097325;28;20024;-67
2021/06/22 03:01:31;;;;;;;24.40;11.90;;;;;;;;;;5097077;28;20024;-67
2021/06/22 03:03:56;;;;;;;24.35;12.30;;;;;;;;;;5097191;28;20468;-66
2021/06/22 03:06:21;;;;;;;24.55;11.90;;;;;;;;;;5097038;28;20039;-67
2021/06/22 03:08:47;;;;;;;29.08;12.88;;;;;;;;;;5097032;28;20047;-68
2021/06/22 03:11:12;;;;;;;29.30;12.52;;;;;;;;;;5097061;28;20080;-67
2021/06/22 03:13:37;;;;;;;24.25;12.90;;;;;;;;;;5096978;28;20464;-67
2021/06/22 03:16:03;;;;;;;26.63;12.73;;;;;;;;;;5097237;28;20026;-68
2021/06/22 03:18:28;;;;;;;26.05;13.70;;;;;;;;;;5095735;28;20027;-67
2021/06/22 03:20:53;;;;;;;20.23;12.07;;;;;;;;;;5096527;28;20484;-68
2021/06/22 03:23:19;;;;;;;22.10;12.13;;;;;;;;;;5096808;28;20043;-67
2021/06/22 03:25:45;;;;;;;23.95;12.38;;;;;;;;;;5096491;28;20028;-67
2021/06/22 03:28:10;;;;;;;24.00;12.55;;;;;;;;;;5096657;28;20040;-67
2021/06/22 03:30:35;;;;;;;21.33;11.38;;;;;;;;;;5096356;28;20020;-68
2021/06/22 03:33:00;;;;;;;25.35;11.52;;;;;;;;;;5096587;28;20023;-67
2021/06/22 03:35:27;;;;;;;23.58;12.00;;;;;;;;;;5096875;28;20039;-67
2021/06/22 03:37:52;;;;;;;19.15;11.68;;;;;;;;;;5096358;28;20020;-68
2021/06/22 03:40:19;;;;;;;23.15;11.50;;;;;;;;;;5096643;28;20024;-67
2021/06/22 03:42:46;;;;;;;20.27;11.00;;;;;;;;;;5095948;28;20391;-68
2021/06/22 03:45:11;;;;;;;18.85;10.68;;;;;;;;;;5096485;28;20023;-67
2021/06/22 03:47:37;;;;;;;18.50;10.52;;;;;;;;;;5096080;28;20032;-68
2021/06/22 03:50:06;;;;;;;22.27;10.40;;;;;;;;;;5095832;28;20139;-68
2021/06/22 03:52:31;;;;;;;19.52;11.13;;;;;;;;;;5095792;28;20456;-68
2021/06/22 03:54:56;;;;;;;22.92;10.13;;;;;;;;;;5096339;28;20016;-68
2021/06/22 03:57:22;;;;;;;20.60;11.55;;;;;;;;;;5096010;28;20036;-67
2021/06/22 03:59:47;;;;;;;19.10;11.05;;;;;;;;;;5095281;28;20456;-68
2021/06/22 04:02:13;;;;;;;18.73;10.60;;;;;;;;;;5096015;28;20055;-67
2021/06/22 04:04:38;;;;;;;21.58;10.75;;;;;;;;;;5094922;28;20040;-67
2021/06/22 04:07:04;;;;;;;20.48;10.88;;;;;;;;;;5095595;28;20035;-67
2021/06/22 04:09:29;;;;;;;18.98;10.60;;;;;;;;;;5095987;28;20023;-68
2021/06/22 04:11:56;;;;;;;22.75;11.55;;;;;;;;;;5095700;28;20032;-68
2021/06/22 04:14:21;;;;;;;28.42;11.30;;;;;;;;;;5095581;28;20111;-67
2021/06/22 04:16:46;;;;;;;22.67;11.70;;;;;;;;;;5095462;28;20066;-67
2021/06/22 04:19:12;;;;;;;21.98;11.30;;;;;;;;;;5096143;28;20043;-67
2021/06/22 04:21:37;;;;;;;24.85;11.80;;;;;;;;;;5095578;28;20445;-67
2021/06/22 04:24:03;;;;;;;19.77;11.27;;;;;;;;;;5095706;28;20019;-66
2021/06/22 04:26:28;;;;;;;18.40;11.38;;;;;;;;;;5095503;28;20064;-68
2021/06/22 04:28:53;;;;;;;21.52;10.52;;;;;;;;;;5095545;28;20030;-67
2021/06/22 04:31:18;;;;;;;21.00;10.32;;;;;;;;;;5095886;28;20020;-68
2021/06/22 04:33:44;;;;;;;17.38;10.77;;;;;;;;;;5095156;28;20032;-67
2021/06/22 04:36:09;;;;;;;19.08;10.68;;;;;;;;;;5095286;28;20051;-67
2021/06/22 04:38:35;;;;;;;20.63;10.57;;;;;;;;;;5095409;28;20107;-67
2021/06/22 04:41:00;;;;;;;20.23;10.23;;;;;;;;;;5095319;28;20526;-67
2021/06/22 04:43:25;;;;;;;16.65;10.90;;;;;;;;;;5095342;28;20020;-68
2021/06/22 04:45:50;;;;;;;21.55;11.57;;;;;;;;;;5095284;28;20012;-67
2021/06/22 04:48:16;;;;;;;18.92;10.05;;;;;;;;;;5094976;28;20549;-67
2021/06/22 04:50:41;;;;;;;19.73;11.05;;;;;;;;;;5094791;28;20020;-68
2021/06/22 04:53:06;;;;;;;17.75;10.77;;;;;;;;;;5094743;28;20020;-67
2021/06/22 04:55:31;;;;;;;27.40;11.45;;;;;;;;;;5095345;28;20050;-67
2021/06/22 04:57:58;;;;;;;19.00;10.70;;;;;;;;;;5094820;28;20024;-68
2021/06/22 05:00:24;;;;;;;17.90;11.15;;;;;;;;;;5094644;28;20396;-67
2021/06/22 05:02:49;;;;;;;18.08;11.27;;;;;;;;;;5094783;28;20032;-68
2021/06/22 05:05:15;;;;;;;22.77;11.30;;;;;;;;;;5094984;28;20047;-67
2021/06/22 05:07:40;;;;;;;19.10;11.10;;;;;;;;;;5094697;28;20353;-67
2021/06/22 05:10:06;;;;;;;20.05;10.40;;;;;;;;;;5094251;28;20032;-67
2021/06/22 05:12:31;;;;;;;23.13;12.55;;;;;;;;;;5094650;28;20016;-67
2021/06/22 05:14:56;;;;;;;18.10;9.68;;;;;;;;;;5094442;28;20015;-68
2021/06/22 05:17:22;;;;;;;18.13;9.65;;;;;;;;;;5094489;28;20038;-67
2021/06/22 05:19:47;;;;;;;17.73;10.23;;;;;;;;;;5094205;28;20024;-68
2021/06/22 05:22:13;;;;;;;17.83;10.68;;;;;;;;;;5094512;28;20047;-67
2021/06/22 05:24:38;;;;;;;17.42;10.00;;;;;;;;;;5094317;28;20044;-67
2021/06/22 05:27:04;;;;;;;17.27;9.05;;;;;;;;;;5094041;28;20067;-67
2021/06/22 05:29:29;;;;;;;13.50;9.98;;;;;;;;;;5094503;28;20020;-67
2021/06/22 05:31:55;;;;;;;22.85;10.02;;;;;;;;;;5094505;28;20039;-68
2021/06/22 05:34:20;;;;;;;20.60;9.85;;;;;;;;;;5094329;28;20024;-67
2021/06/22 05:36:45;;;;;;;14.50;8.93;;;;;;;;;;5093750;28;20020;-68
2021/06/22 05:39:10;;;;;;;18.08;9.65;;;;;;;;;;5093965;28;20101;-66
2021/06/22 05:41:36;;;;;;;19.08;9.90;;;;;;;;;;5093741;28;20142;-67
2021/06/22 05:44:01;;;;;;;16.52;9.80;;;;;;;;;;5094113;28;20350;-68
2021/06/22 05:46:26;;;;;;;17.27;10.20;;;;;;;;;;5093752;28;20054;-67
2021/06/22 05:48:52;;;;;;;19.08;10.00;;;;;;;;;;5094041;28;20028;-68
2021/06/22 05:51:18;;;;;;;16.35;9.40;;;;;;;;;;5093989;28;20056;-67
2021/06/22 05:53:44;;;;;;;17.88;9.30;;;;;;;;;;5093834;28;20036;-67
2021/06/22 05:56:09;;;;;;;14.30;8.77;;;;;;;;;;5094165;28;20434;-67
2021/06/22 05:58:34;;;;;;;12.82;7.50;;;;;;;;;;5093825;28;20112;-68
2021/06/22 06:01:00;;;;;;;12.95;7.20;;;;;;;;;;5093763;28;20063;-67
2021/06/22 06:03:25;;;;;;;14.65;8.13;;;;;;;;;;5093590;28;20111;-67
2021/06/22 06:05:50;;;;;;;15.95;7.07;;;;;;;;;;5093704;28;20027;-68
2021/06/22 06:08:15;;;;;;;12.80;7.15;;;;;;;;;;5092972;28;20071;-67
2021/06/22 06:10:41;;;;;;;9.35;6.53;;;;;;;;;;5093849;28;20051;-67
2021/06/22 06:13:06;;;;;;;15.70;7.18;;;;;;;;;;5093365;28;20448;-68
2021/06/22 06:15:32;;;;;;;13.90;6.90;;;;;;;;;;5092545;28;20090;-68
2021/06/22 06:17:57;;;;;;;14.40;6.43;;;;;;;;;;5093347;28;20028;-67
2021/06/22 06:20:22;;;;;;;12.63;6.43;;;;;;;;;;5092521;28;20028;-68
2021/06/22 06:22:49;;;;;;;9.60;6.45;;;;;;;;;;5092196;28;20032;-68
2021/06/22 06:25:15;;;;;;;9.40;5.80;;;;;;;;;;5093231;28;20029;-67
2021/06/22 06:27:56;;;;;;;11.00;6.38;;;;;;;;;;5090962;28;20035;-67
2021/06/22 06:30:24;;;;;;;12.52;6.45;;;;;;;;;;5093058;28;20031;-67
2021/06/22 06:32:50;;;;;;;14.70;6.30;;;;;;;;;;5092652;28;20028;-68
2021/06/22 06:35:17;;;;;;;8.68;5.75;;;;;;;;;;5092566;28;20024;-68
2021/06/22 06:37:42;;;;;;;11.43;5.63;;;;;;;;;;5092754;28;20031;-68
2021/06/22 06:40:09;;;;;;;8.35;5.53;;;;;;;;;;5092820;28;20091;-69
2021/06/22 06:42:34;;;;;;;7.85;5.00;;;;;;;;;;5091401;28;20028;-67
2021/06/22 06:45:00;;;;;;;8.18;4.63;;;;;;;;;;5091985;28;20123;-68
2021/06/22 06:47:25;;;;;;;11.85;4.85;;;;;;;;;;5092286;28;20555;-68
2021/06/22 06:49:50;;;;;;;10.43;5.45;;;;;;;;;;5092358;28;20036;-69
2021/06/22 06:52:15;;;;;;;12.27;5.30;;;;;;;;;;5091041;28;20025;-67
2021/06/22 06:54:41;;;;;;;7.68;4.65;;;;;;;;;;5092722;28;20115;-67
2021/06/22 06:57:06;;;;;;;7.95;4.15;;;;;;;;;;5092022;28;20040;-68
2021/06/22 06:59:32;;;;;;;9.40;3.95;;;;;;;;;;5091891;28;20029;-68
2021/06/22 07:01:57;;;;;;;6.28;3.33;;;;;;;;;;5092156;28;20050;-68
2021/06/22 07:04:22;;;;;;;6.25;3.33;;;;;;;;;;5092959;28;20052;-68
2021/06/22 07:06:47;;;;;;;5.72;3.67;;;;;;;;;;5092567;28;20028;-69
2021/06/22 07:09:13;;;;;;;8.32;3.17;;;;;;;;;;5092323;28;20118;-69
2021/06/22 07:11:39;;;;;;;7.00;2.83;;;;;;;;;;5092762;28;20081;-66
2021/06/22 07:14:04;;;;;;;4.15;2.40;;;;;;;;;;5092886;28;20055;-66
2021/06/22 07:16:29;;;;;;;6.97;2.90;;;;;;;;;;5092695;28;20154;-66
2021/06/22 07:18:55;;;;;;;8.50;3.20;;;;;;;;;;5091659;28;20110;-66
2021/06/22 07:21:20;;;;;;;5.63;2.95;;;;;;;;;;5092624;28;20013;-66
2021/06/22 07:23:46;;;;;;;4.55;2.40;;;;;;;;;;5092704;28;20055;-66
2021/06/22 07:26:11;;;;;;;7.57;2.83;;;;;;;;;;5092606;28;20032;-67
2021/06/22 07:28:37;;;;;;;5.45;2.78;;;;;;;;;;5092784;28;20030;-66
2021/06/22 07:31:03;;;;;;;4.95;2.60;;;;;;;;;;5092991;28;20022;-67
2021/06/22 07:33:28;;;;;;;4.43;2.10;;;;;;;;;;5095318;28;20090;-66
2021/06/22 07:35:54;;;;;;;7.40;2.60;;;;;;;;;;5096226;28;20024;-66
2021/06/22 07:38:19;;;;;;;6.38;2.80;;;;;;;;;;5096447;28;20016;-66
2021/06/22 07:40:44;;;;;;;9.32;2.90;;;;;;;;;;5096401;28;20032;-66
2021/06/22 07:43:10;;;;;;;11.50;2.60;;;;;;;;;;5096524;28;20016;-67
2021/06/22 07:45:35;;;;;;;6.70;2.97;;;;;;;;;;5096526;28;20507;-67
2021/06/22 07:48:00;;;;;;;8.18;3.10;;;;;;;;;;5096243;28;20043;-66
2021/06/22 07:50:26;;;;;;;7.65;2.88;;;;;;;;;;5096067;28;20095;-67
2021/06/22 07:52:51;;;;;;;7.50;2.67;;;;;;;;;;5096007;28;20052;-67
2021/06/22 07:55:16;;;;;;;6.57;3.30;;;;;;;;;;5096016;28;20040;-65
2021/06/22 07:57:46;;;;;;;6.57;3.33;;;;;;;;;;5095421;28;20024;-66
2021/06/22 08:00:18;;;;;;;5.10;2.58;;;;;;;;;;5095946;28;20456;-67
2021/06/22 08:02:44;;;;;;;6.07;2.20;;;;;;;;;;5090516;28;20035;-69
2021/06/22 08:05:09;;;;;;;9.18;3.63;;;;;;;;;;5094978;28;20056;-69
2021/06/22 08:07:34;;;;;;;11.02;3.90;;;;;;;;;;5095200;28;20040;-69
2021/06/22 08:10:00;;;;;;;8.90;3.40;;;;;;;;;;5094628;28;20074;-68
2021/06/22 08:12:25;;;;;;;5.60;3.15;;;;;;;;;;5095082;28;20504;-70
2021/06/22 08:14:50;;;;;;;7.55;2.85;;;;;;;;;;5095177;28;20028;-70
2021/06/22 08:17:15;;;;;;;8.85;2.90;;;;;;;;;;5095051;28;20032;-69
2021/06/22 08:19:41;;;;;;;5.18;2.90;;;;;;;;;;5094966;28;20022;-69
2021/06/22 08:22:06;;;;;;;6.47;3.50;;;;;;;;;;5094620;28;20457;-69
2021/06/22 08:24:31;;;;;;;5.30;2.80;;;;;;;;;;5088149;28;20304;-69
2021/06/22 08:26:56;;;;;;;8.60;3.05;;;;;;;;;;5091625;28;20032;-69
2021/06/22 08:29:22;;;;;;;8.70;2.90;;;;;;;;;;5093037;28;20047;-68
2021/06/22 08:31:47;;;;;;;6.43;2.90;;;;;;;;;;5091087;28;20036;-69
2021/06/22 08:34:12;;;;;;;10.02;3.10;;;;;;;;;;5080863;28;20020;-69
2021/06/22 08:36:38;;;;;;;4.93;2.92;;;;;;;;;;5089481;28;20035;-69
2021/06/22 08:39:03;;;;;;;4.80;2.83;;;;;;;;;;5092291;28;20061;-70
2021/06/22 08:41:29;;;;;;;4.07;2.28;;;;;;;;;;5091353;28;20016;-68
2021/06/22 08:43:56;;;;;;;8.38;3.10;;;;;;;;;;5091507;28;20027;-69
2021/06/22 08:46:21;;;;;;;6.32;2.47;;;;;;;;;;5091496;28;20532;-68
2021/06/22 08:48:46;;;;;;;5.25;2.22;;;;;;;;;;5092007;28;20024;-68
2021/06/22 08:51:12;;;;;;;5.45;2.55;;;;;;;;;;5091388;28;20026;-69
2021/06/22 08:53:38;;;;;;;5.70;2.28;;;;;;;;;;5091160;28;20032;-69
2021/06/22 08:56:03;;;;;;;3.28;2.22;;;;;;;;;;5092149;28;20024;-69
2021/06/22 08:58:28;;;;;;;4.95;2.60;;;;;;;;;;5091711;28;20055;-69
2021/06/22 09:00:54;;;;;;;5.53;3.05;;;;;;;;;;5091393;28;20134;-69
2021/06/22 09:03:24;;;;;;;4.53;2.42;;;;;;;;;;5091138;28;20020;-68
2021/06/22 09:05:51;;;;;;;7.20;2.88;;;;;;;;;;5091327;28;20038;-70
2021/06/22 09:08:24;;;;;;;5.45;3.13;;;;;;;;;;5091230;28;20047;-68
2021/06/22 09:10:52;;;;;;;4.88;2.65;;;;;;;;;;5091210;28;20030;-69
2021/06/22 09:13:22;;;;;;;6.40;2.60;;;;;;;;;;5090643;28;20038;-69
2021/06/22 09:15:49;;;;;;;7.07;2.50;;;;;;;;;;5088253;28;20099;-69
2021/06/22 09:18:21;;;;;;;4.43;2.30;;;;;;;;;;5091655;28;20030;-70
2021/06/22 09:20:46;;;;;;;5.30;2.40;;;;;;;;;;5091663;28;20090;-69
2021/06/22 09:23:25;;;;;;;7.65;2.65;;;;;;;;;;5091604;28;20028;-69
2021/06/22 09:25:55;;;;;;;6.05;2.85;;;;;;;;;;5092393;28;20502;-69
2021/06/22 09:28:30;;;;;;;5.15;2.53;;;;;;;;;;5092470;28;20036;-69
2021/06/22 09:31:00;;;;;;;4.97;2.63;;;;;;;;;;5091370;28;20032;-69
2021/06/22 09:33:36;;;;;;;4.68;2.70;;;;;;;;;;5091637;28;20035;-65
2021/06/22 09:36:05;;;;;;;6.80;2.67;;;;;;;;;;5091870;28;20024;-68
2021/06/22 09:38:32;;;;;;;6.65;3.15;;;;;;;;;;5091577;28;20035;-68
2021/06/22 09:41:04;;;;;;;5.15;3.10;;;;;;;;;;5091516;28;20392;-69
2021/06/22 09:43:36;;;;;;;9.18;3.15;;;;;;;;;;5091995;28;20028;-69
2021/06/22 09:46:01;;;;;;;4.82;2.33;;;;;;;;;;5091955;28;20060;-69
2021/06/22 09:48:26;;;;;;;6.05;2.50;;;;;;;;;;5091533;28;20063;-69
2021/06/22 09:50:52;;;;;;;5.43;2.75;;;;;;;;;;5091549;28;20036;-68
2021/06/22 09:53:23;;;;;;;4.97;2.20;;;;;;;;;;5091025;28;20036;-68
2021/06/22 09:55:49;;;;;;;7.47;2.80;;;;;;;;;;5091329;28;20020;-69
2021/06/22 09:58:14;;;;;;;5.70;2.75;;;;;;;;;;5091147;28;20380;-68
2021/06/22 10:00:40;;;;;;;4.88;3.13;;;;;;;;;;5090853;28;20036;-68
2021/06/22 10:03:05;;;;;;;6.80;2.42;;;;;;;;;;5091382;28;20028;-68
2021/06/22 10:05:32;;;;;;;5.75;2.85;;;;;;;;;;5089578;28;20048;-69
2021/06/22 10:07:57;;;;;;;5.82;2.60;;;;;;;;;;5090016;28;20551;-68
2021/06/22 10:10:34;;;;;;;6.28;3.00;;;;;;;;;;5090265;28;20069;-68
2021/06/22 10:12:59;;;;;;;4.40;2.63;;;;;;;;;;5089920;28;20486;-68
2021/06/22 10:15:24;;;;;;;6.03;2.55;;;;;;;;;;5082531;28;20028;-67
2021/06/22 10:17:50;;;;;;;7.43;2.53;;;;;;;;;;5087569;28;20025;-68
2021/06/22 10:20:16;;;;;;;5.30;2.50;;;;;;;;;;5088907;28;20047;-67
2021/06/22 10:22:43;;;;;;;8.77;2.60;;;;;;;;;;5087802;28;20936;-68
2021/06/22 10:25:10;;;;;;;4.47;2.33;;;;;;;;;;5087253;28;20023;-67
2021/06/22 10:27:36;;;;;;;4.00;2.13;;;;;;;;;;5087994;28;20040;-68
2021/06/22 10:30:03;;;;;;;4.80;2.50;;;;;;;;;;5087562;28;20039;-68
2021/06/22 10:32:30;;;;;;;5.00;2.35;;;;;;;;;;5088316;28;20024;-67
2021/06/22 10:34:58;;;;;;;8.07;2.05;;;;;;;;;;5087332;28;20399;-68
2021/06/22 10:37:30;;;;;;;7.32;2.15;;;;;;;;;;5088607;28;20118;-67
2021/06/22 10:40:13;;;;;;;7.63;2.40;;;;;;;;;;5089538;28;20095;-67
2021/06/22 10:42:42;;;;;;;7.28;3.00;;;;;;;;;;5090382;28;20028;-67
2021/06/22 10:45:08;;;;;;;6.22;2.33;;;;;;;;;;5090730;28;20028;-68
2021/06/22 10:47:37;;;;;;;6.55;2.70;;;;;;;;;;5090603;28;20431;-65
2021/06/22 10:50:03;;;;;;;4.55;2.30;;;;;;;;;;5091280;28;20026;-68
2021/06/22 10:52:43;;;;;;;8.60;2.83;;;;;;;;;;5090642;28;20126;-67
2021/06/22 10:55:22;;;;;;;5.32;2.70;;;;;;;;;;5090657;28;20032;-67
2021/06/22 10:57:59;;;;;;;7.38;2.83;;;;;;;;;;5090249;28;20035;-67
2021/06/22 11:00:25;;;;;;;7.30;2.33;;;;;;;;;;5090640;28;20059;-68
2021/06/22 11:03:00;;;;;;;3.60;2.00;;;;;;;;;;5090209;28;20439;-67
2021/06/22 11:05:25;;;;;;;5.55;1.95;;;;;;;;;;5090690;28;20427;-66
2021/06/22 11:08:09;;;;;;;8.27;2.22;;;;;;;;;;5092587;28;20044;-68
2021/06/22 11:10:35;;;;;;;5.88;1.98;;;;;;;;;;5094333;28;20119;-67
2021/06/22 11:13:01;;;;;;;5.05;2.65;;;;;;;;;;5094117;28;20024;-67
2021/06/22 11:15:45;;;;;;;7.68;2.60;;;;;;;;;;5093802;28;20086;-67
2021/06/22 11:18:15;;;;;;;6.20;2.33;;;;;;;;;;5093508;28;20032;-67
2021/06/22 11:20:41;;;;;;;5.03;2.50;;;;;;;;;;5090085;28;20028;-68
2021/06/22 11:23:10;;;;;;;5.88;2.70;;;;;;;;;;5088315;28;20631;-67
2021/06/22 11:25:48;;;;;;;7.95;2.42;;;;;;;;;;5091998;28;20110;-68
2021/06/22 11:28:14;;;;;;;6.22;3.15;;;;;;;;;;5092659;28;20112;-68
2021/06/22 11:30:46;;;;;;;7.22;2.15;;;;;;;;;;5093807;28;20090;-68
2021/06/22 11:33:29;;;;;;;5.40;2.17;;;;;;;;;;5091524;28;20495;-67
2021/06/22 11:36:13;;;;;;;7.65;2.75;;;;;;;;;;5092581;28;20052;-67
2021/06/22 11:38:38;;;;;;;7.03;2.75;;;;;;;;;;5092510;28;20035;-67
2021/06/22 11:41:11;;;;;;;3.40;2.20;;;;;;;;;;5094077;28;20024;-68
2021/06/22 11:43:36;;;;;;;5.88;2.30;;;;;;;;;;5094998;28;20040;-67
2021/06/22 11:46:20;;;;;;;6.20;2.38;;;;;;;;;;5094742;28;20349;-67
2021/06/22 11:48:58;;;;;;;4.20;2.40;;;;;;;;;;5094519;28;20055;-67
2021/06/22 11:51:42;;;;;;;5.43;2.25;;;;;;;;;;5094496;28;20087;-67
2021/06/22 11:54:07;;;;;;;7.40;2.55;;;;;;;;;;5094599;28;20495;-66
2021/06/22 11:56:33;;;;;;;4.45;2.22;;;;;;;;;;5094207;28;20060;-67
2021/06/22 11:59:02;;;;;;;7.00;2.55;;;;;;;;;;5094232;28;20046;-68
2021/06/22 12:01:27;;;;;;;5.00;2.35;;;;;;;;;;5094313;28;20035;-67
2021/06/22 12:03:53;;;;;;;4.80;2.20;;;;;;;;;;5093926;28;20127;-67
2021/06/22 12:06:21;;;;;;;6.50;2.08;;;;;;;;;;5094472;28;20463;-67
2021/06/22 12:08:46;;;;;;;8.70;2.50;;;;;;;;;;5094193;28;20469;-67
2021/06/22 12:11:13;;;;;;;7.38;2.80;;;;;;;;;;5093725;28;20036;-66
2021/06/22 12:13:44;;;;;;;7.78;3.05;;;;;;;;;;5094152;28;20043;-67
2021/06/22 12:16:13;;;;;;;7.57;2.33;;;;;;;;;;5094090;28;20372;-67
2021/06/22 12:18:39;;;;;;;5.88;2.70;;;;;;;;;;5092543;28;20039;-68
2021/06/22 12:21:04;;;;;;;5.63;2.60;;;;;;;;;;5094238;28;20024;-67
2021/06/22 12:23:30;;;;;;;6.65;2.97;;;;;;;;;;5093735;28;20100;-67
2021/06/22 12:25:55;;;;;;;9.10;3.40;;;;;;;;;;5093965;28;20044;-67
2021/06/22 12:28:25;;;;;;;5.63;2.15;;;;;;;;;;5093605;28;20036;-67
2021/06/22 12:30:54;;;;;;;3.72;2.50;;;;;;;;;;5094015;28;20024;-67
2021/06/22 12:33:21;;;;;;;5.00;2.58;;;;;;;;;;5093312;28;20039;-67
2021/06/22 12:35:50;;;;;;;4.85;2.33;;;;;;;;;;5093797;28;20115;-67
2021/06/22 12:38:16;;;;;;;4.50;2.47;;;;;;;;;;5093868;28;20073;-67
2021/06/22 12:41:01;;;;;;;5.97;2.67;;;;;;;;;;5093558;28;20027;-66
2021/06/22 12:43:40;;;;;;;7.88;2.53;;;;;;;;;;5093143;28;20024;-67
2021/06/22 12:46:06;;;;;;;17.90;2.97;;;;;;;;;;5093428;28;20084;-67
2021/06/22 12:48:31;;;;;;;8.63;2.78;;;;;;;;;;5093514;28;20043;-67
2021/06/22 12:50:57;;;;;;;6.10;2.55;;;;;;;;;;5093331;28;20032;-67
2021/06/22 12:53:22;;;;;;;4.95;2.60;;;;;;;;;;5093202;28;20166;-67
2021/06/22 12:55:48;;;;;;;7.60;2.70;;;;;;;;;;5093608;28;20854;-68
2021/06/22 12:58:15;;;;;;;6.53;2.30;;;;;;;;;;5093314;28;20070;-68
2021/06/22 13:00:46;;;;;;;4.90;2.00;;;;;;;;;;5093160;28;20103;-68
2021/06/22 13:03:19;;;;;;;4.22;2.22;;;;;;;;;;5092814;28;20039;-67
2021/06/22 13:05:48;;;;;;;5.00;2.47;;;;;;;;;;5090283;28;20043;-68
2021/06/22 13:08:18;;;;;;;6.60;2.50;;;;;;;;;;5089497;28;20185;-67
2021/06/22 13:10:50;;;;;;;7.35;2.20;;;;;;;;;;5093290;28;20028;-67
2021/06/22 13:13:22;;;;;;;6.05;2.40;;;;;;;;;;5090573;28;20032;-67
2021/06/22 13:15:48;;;;;;;5.30;2.35;;;;;;;;;;5087862;28;20043;-67
2021/06/22 13:18:13;;;;;;;5.88;2.20;;;;;;;;;;5092181;28;20096;-67
2021/06/22 13:20:41;;;;;;;8.48;2.50;;;;;;;;;;5091451;28;20032;-67
2021/06/22 13:23:07;;;;;;;8.20;2.28;;;;;;;;;;5091538;28;20035;-67
2021/06/22 13:25:35;;;;;;;7.35;2.75;;;;;;;;;;5089701;28;20016;-67
2021/06/22 13:28:07;;;;;;;5.60;2.50;;;;;;;;;;5092299;28;20043;-67
2021/06/22 13:30:33;;;;;;;7.38;2.45;;;;;;;;;;5088727;28;20031;-67
2021/06/22 13:32:59;;;;;;;4.93;2.75;;;;;;;;;;5092070;28;20020;-66
2021/06/22 13:35:35;;;;;;;5.88;2.25;;;;;;;;;;5092514;28;20016;-67
2021/06/22 13:38:06;;;;;;;5.45;2.65;;;;;;;;;;5092777;28;20035;-67
2021/06/22 13:40:36;;;;;;;5.50;2.50;;;;;;;;;;5092583;28;20020;-67
2021/06/22 13:43:11;;;;;;;5.93;2.45;;;;;;;;;;5092881;28;20024;-67
2021/06/22 13:45:38;;;;;;;5.20;2.63;;;;;;;;;;5092387;28;20077;-68
2021/06/22 13:48:03;;;;;;;7.82;3.00;;;;;;;;;;5092233;28;20085;-67
2021/06/22 13:50:29;;;;;;;8.35;3.22;;;;;;;;;;5092612;28;20419;-68
2021/06/22 13:52:56;;;;;;;5.78;2.70;;;;;;;;;;5091726;28;20020;-67
2021/06/22 13:55:37;;;;;;;9.50;2.70;;;;;;;;;;5092054;28;20043;-67
2021/06/22 13:58:04;;;;;;;5.32;2.45;;;;;;;;;;5092337;28;20016;-68
2021/06/22 14:00:30;;;;;;;5.95;3.13;;;;;;;;;;5092531;28;20085;-67
2021/06/22 14:02:55;;;;;;;7.50;2.63;;;;;;;;;;5091904;28;20015;-67
2021/06/22 14:05:21;;;;;;;7.20;2.90;;;;;;;;;;5091791;28;20044;-67
2021/06/22 14:07:46;;;;;;;4.35;2.33;;;;;;;;;;5091559;28;20415;-66
2021/06/22 14:10:11;;;;;;;9.63;3.00;;;;;;;;;;5091504;28;20071;-68
2021/06/22 14:12:37;;;;;;;8.63;3.05;;;;;;;;;;5091563;28;20016;-67
2021/06/22 14:15:02;;;;;;;5.55;2.95;;;;;;;;;;5091630;28;20510;-66
2021/06/22 14:17:28;;;;;;;6.25;2.40;;;;;;;;;;5090923;28;20020;-67
2021/06/22 14:19:53;;;;;;;10.90;3.35;;;;;;;;;;5091707;28;20131;-67
2021/06/22 14:22:18;;;;;;;8.57;2.85;;;;;;;;;;5091436;28;20088;-67
2021/06/22 14:24:43;;;;;;;5.60;2.63;;;;;;;;;;5091963;28;20080;-67
2021/06/22 14:27:09;;;;;;;5.80;2.70;;;;;;;;;;5090990;28;20043;-67
2021/06/22 14:29:35;;;;;;;7.05;2.92;;;;;;;;;;5092122;28;20039;-67